Time;durP1;ratioP1;P1;durP2;ratioP2;P2;SDS_P1;SDS_P2;PMS_P1;PMS_P2;Temp;Humidity;BMP_temperature;BMP_pressure;BME280_temperature;BME280_humidity;BME280_pressure;Samples;Min_cycle;Max_cycle;Signal;HPM_P1;HPM_P2
2022/06/01 00:01:00;;;;;;;16.95;9.32;;;;;;;;;;4978632;28;20529;-84
2022/06/01 00:03:29;;;;;;;16.38;8.13;;;;;;;;;;4966298;28;20031;-84
2022/06/01 00:05:55;;;;;;;17.80;8.80;;;;;;;;;;4963911;28;20030;-85
2022/06/01 00:08:21;;;;;;;15.57;10.05;;;;;;;;;;4978682;28;20037;-84
2022/06/01 00:10:48;;;;;;;20.00;9.70;;;;;;;;;;4963684;28;20433;-84
2022/06/01 00:13:14;;;;;;;13.55;9.10;;;;;;;;;;4973650;28;20457;-84
2022/06/01 00:15:40;;;;;;;15.07;9.45;;;;;;;;;;4961698;28;20053;-84
2022/06/01 00:18:06;;;;;;;14.68;10.07;;;;;;;;;;4961630;28;20042;-84
2022/06/01 00:20:32;;;;;;;15.18;8.90;;;;;;;;;;4961496;28;20035;-84
2022/06/01 00:22:58;;;;;;;15.30;10.05;;;;;;;;;;4978791;28;20019;-84
2022/06/01 00:25:24;;;;;;;21.08;9.63;;;;;;;;;;4965569;28;20041;-84
2022/06/01 00:27:51;;;;;;;17.95;10.82;;;;;;;;;;4964541;28;20022;-84
2022/06/01 00:30:18;;;;;;;14.85;9.25;;;;;;;;;;4962833;28;20030;-84
2022/06/01 00:32:44;;;;;;;13.68;8.23;;;;;;;;;;4963781;28;20047;-84
2022/06/01 00:35:11;;;;;;;16.48;8.30;;;;;;;;;;4964398;28;20375;-84
2022/06/01 00:37:37;;;;;;;14.65;8.65;;;;;;;;;;4962229;28;20082;-84
2022/06/01 00:40:04;;;;;;;17.42;8.80;;;;;;;;;;4976839;28;20033;-84
2022/06/01 00:42:32;;;;;;;18.92;9.45;;;;;;;;;;4956662;28;20042;-84
2022/06/01 00:44:58;;;;;;;15.93;8.65;;;;;;;;;;4976060;28;20569;-84
2022/06/01 00:47:25;;;;;;;16.45;8.27;;;;;;;;;;4957268;28;20034;-85
2022/06/01 00:50:05;;;;;;;16.98;9.00;;;;;;;;;;4982901;28;20030;-84
2022/06/01 00:52:36;;;;;;;14.45;9.27;;;;;;;;;;4963863;28;20035;-85
2022/06/01 00:55:04;;;;;;;19.55;11.20;;;;;;;;;;4960076;28;20529;-84
2022/06/01 00:57:31;;;;;;;24.45;11.85;;;;;;;;;;4957333;28;20042;-84
2022/06/01 00:59:57;;;;;;;18.88;11.82;;;;;;;;;;4959344;28;20498;-84
2022/06/01 01:02:23;;;;;;;20.45;11.98;;;;;;;;;;4980188;28;20516;-84
2022/06/01 01:04:49;;;;;;;17.40;11.32;;;;;;;;;;4956451;28;20439;-84
2022/06/01 01:07:16;;;;;;;22.30;12.20;;;;;;;;;;4958580;28;20466;-84
2022/06/01 01:09:42;;;;;;;17.65;11.45;;;;;;;;;;4957768;28;20034;-84
2022/06/01 01:12:09;;;;;;;23.30;11.85;;;;;;;;;;4964416;28;20177;-85
2022/06/01 01:14:38;;;;;;;20.05;12.00;;;;;;;;;;4956161;28;20513;-84
2022/06/01 01:17:04;;;;;;;32.10;12.20;;;;;;;;;;4978279;28;20418;-84
2022/06/01 01:19:57;;;;;;;19.20;11.57;;;;;;;;;;4958888;28;20027;-84
2022/06/01 01:22:36;;;;;;;20.98;11.35;;;;;;;;;;4952111;28;20050;-84
2022/06/01 01:25:21;;;;;;;25.67;11.95;;;;;;;;;;4958860;28;20105;-84
2022/06/01 01:27:48;;;;;;;22.23;11.88;;;;;;;;;;4977483;28;20478;-84
2022/06/01 01:30:29;;;;;;;21.40;12.35;;;;;;;;;;4955831;28;20069;-85
2022/06/01 01:32:55;;;;;;;18.80;12.25;;;;;;;;;;4958497;28;20024;-84
2022/06/01 01:35:21;;;;;;;22.45;13.00;;;;;;;;;;4954702;28;20041;-85
2022/06/01 01:37:49;;;;;;;22.15;12.93;;;;;;;;;;4960087;28;20047;-84
2022/06/01 01:40:15;;;;;;;21.58;12.63;;;;;;;;;;4938979;28;20438;-84
2022/06/01 01:42:41;;;;;;;20.25;12.50;;;;;;;;;;4938663;28;20026;-84
2022/06/01 01:45:10;;;;;;;20.45;12.68;;;;;;;;;;4941837;28;20035;-84
2022/06/01 01:47:37;;;;;;;23.13;12.55;;;;;;;;;;4944374;28;20360;-84
2022/06/01 01:50:07;;;;;;;19.52;12.15;;;;;;;;;;4940616;28;20145;-85
2022/06/01 01:52:33;;;;;;;22.55;12.15;;;;;;;;;;4955911;28;20041;-84
2022/06/01 01:55:04;;;;;;;18.88;11.57;;;;;;;;;;4940161;28;20483;-85
2022/06/01 01:57:42;;;;;;;22.02;11.88;;;;;;;;;;4932263;28;20035;-84
2022/06/01 02:00:14;;;;;;;20.80;12.90;;;;;;;;;;4940515;28;20035;-85
2022/06/01 02:02:50;;;;;;;22.90;12.50;;;;;;;;;;4939196;28;20375;-85
2022/06/01 02:08:17;;;;;;;19.23;12.50;;;;;;;;;;4953865;28;20066;-84
2022/06/01 02:13:36;;;;;;;19.63;11.65;;;;;;;;;;4953075;28;20459;-85
2022/06/01 02:16:02;;;;;;;23.65;12.13;;;;;;;;;;4939989;28;20134;-84
2022/06/01 02:18:31;;;;;;;20.67;11.38;;;;;;;;;;4944507;28;20045;-85
2022/06/01 02:21:08;;;;;;;22.42;13.43;;;;;;;;;;4940055;28;20043;-84
2022/06/01 02:23:34;;;;;;;22.05;13.10;;;;;;;;;;4939183;28;20399;-84
2022/06/01 02:26:01;;;;;;;24.48;14.05;;;;;;;;;;4950268;28;20402;-84
2022/06/01 02:28:28;;;;;;;22.90;14.75;;;;;;;;;;4943509;28;20487;-84
2022/06/01 02:30:55;;;;;;;24.52;13.48;;;;;;;;;;4940420;28;20035;-84
2022/06/01 02:33:23;;;;;;;23.95;13.25;;;;;;;;;;4943229;28;20039;-84
2022/06/01 02:35:51;;;;;;;23.98;15.15;;;;;;;;;;4957102;28;20053;-85
2022/06/01 02:38:20;;;;;;;25.88;14.52;;;;;;;;;;4964391;28;20140;-85
2022/06/01 02:40:46;;;;;;;27.20;15.57;;;;;;;;;;4977864;28;20031;-84
2022/06/01 02:43:13;;;;;;;21.52;13.77;;;;;;;;;;4962993;28;20046;-84
2022/06/01 02:45:40;;;;;;;21.65;13.55;;;;;;;;;;4958532;28;20034;-85
2022/06/01 02:48:06;;;;;;;19.50;12.68;;;;;;;;;;4963280;28;20517;-84
2022/06/01 02:50:34;;;;;;;21.90;13.65;;;;;;;;;;4971498;28;20034;-84
2022/06/01 02:53:00;;;;;;;21.40;12.98;;;;;;;;;;4973200;28;20555;-85
2022/06/01 02:55:28;;;;;;;19.92;13.10;;;;;;;;;;4959058;28;20042;-84
2022/06/01 02:57:54;;;;;;;23.15;14.27;;;;;;;;;;4960581;28;20554;-84
2022/06/01 03:00:20;;;;;;;21.13;12.82;;;;;;;;;;4973672;28;20363;-84
2022/06/01 03:02:48;;;;;;;24.55;13.10;;;;;;;;;;4961574;28;20084;-84
2022/06/01 03:05:15;;;;;;;27.80;14.05;;;;;;;;;;4973473;28;20030;-84
2022/06/01 03:07:41;;;;;;;27.25;13.93;;;;;;;;;;4963115;28;20023;-85
2022/06/01 03:10:09;;;;;;;20.95;14.30;;;;;;;;;;4959461;28;20030;-85
2022/06/01 03:12:35;;;;;;;24.30;14.07;;;;;;;;;;4978398;28;20463;-84
2022/06/01 03:15:02;;;;;;;23.52;14.43;;;;;;;;;;4960075;28;20116;-84
2022/06/01 03:17:28;;;;;;;25.52;15.00;;;;;;;;;;4975527;28;20037;-84
2022/06/01 03:19:54;;;;;;;26.80;14.18;;;;;;;;;;4963880;28;20042;-84
2022/06/01 03:22:20;;;;;;;21.17;13.68;;;;;;;;;;4959122;28;20038;-84
2022/06/01 03:24:46;;;;;;;22.30;14.73;;;;;;;;;;4971890;28;20566;-84
2022/06/01 03:27:12;;;;;;;27.15;15.48;;;;;;;;;;4962396;28;20034;-85
2022/06/01 03:29:44;;;;;;;22.90;14.07;;;;;;;;;;4960753;28;20117;-84
2022/06/01 03:32:11;;;;;;;23.15;14.68;;;;;;;;;;4962317;28;20023;-84
2022/06/01 03:34:37;;;;;;;24.52;15.45;;;;;;;;;;4962953;28;20045;-84
2022/06/01 03:37:03;;;;;;;23.60;14.10;;;;;;;;;;4973496;28;20510;-84
2022/06/01 03:39:29;;;;;;;23.15;13.73;;;;;;;;;;4978558;28;20716;-84
2022/06/01 03:41:56;;;;;;;23.02;15.27;;;;;;;;;;4978475;28;20023;-85
2022/06/01 03:47:11;;;;;;;26.73;15.13;;;;;;;;;;4979849;28;20134;-84
2022/06/01 03:49:38;;;;;;;28.15;15.80;;;;;;;;;;4964067;28;20489;-84
2022/06/01 03:52:04;;;;;;;26.58;16.48;;;;;;;;;;4958374;28;20030;-85
2022/06/01 03:54:31;;;;;;;25.38;15.35;;;;;;;;;;4959516;28;20242;-85
2022/06/01 03:56:57;;;;;;;25.52;15.32;;;;;;;;;;4963931;28;20081;-85
2022/06/01 03:59:23;;;;;;;21.75;14.18;;;;;;;;;;4961750;28;20054;-84
2022/06/01 04:01:49;;;;;;;26.35;15.30;;;;;;;;;;4958571;28;20054;-85
2022/06/01 04:04:15;;;;;;;25.58;14.15;;;;;;;;;;4964821;28;20031;-84
2022/06/01 04:06:41;;;;;;;24.10;15.05;;;;;;;;;;4961699;28;20033;-84
2022/06/01 04:09:08;;;;;;;24.55;15.05;;;;;;;;;;4981331;28;20042;-84
2022/06/01 04:11:34;;;;;;;29.83;15.27;;;;;;;;;;4964261;28;20046;-84
2022/06/01 04:14:00;;;;;;;26.00;14.98;;;;;;;;;;4972529;28;20026;-84
2022/06/01 04:16:28;;;;;;;21.02;13.55;;;;;;;;;;4965431;28;20038;-85
2022/06/01 04:18:54;;;;;;;22.02;14.85;;;;;;;;;;4959971;28;20030;-84
2022/06/01 04:21:24;;;;;;;23.95;15.02;;;;;;;;;;4961982;28;20482;-85
2022/06/01 04:23:50;;;;;;;27.42;14.45;;;;;;;;;;4958483;28;20077;-84
2022/06/01 04:26:17;;;;;;;24.52;15.20;;;;;;;;;;4962276;28;20034;-84
2022/06/01 04:28:43;;;;;;;23.58;15.57;;;;;;;;;;4964976;28;20034;-85
2022/06/01 04:31:09;;;;;;;27.17;15.13;;;;;;;;;;4961991;28;20040;-84
2022/06/01 04:33:36;;;;;;;22.75;13.85;;;;;;;;;;4973029;28;20014;-84
2022/06/01 04:36:02;;;;;;;25.60;14.18;;;;;;;;;;4962291;28;20038;-84
2022/06/01 04:38:29;;;;;;;25.45;14.95;;;;;;;;;;4979334;28;20410;-84
2022/06/01 04:40:56;;;;;;;21.83;14.95;;;;;;;;;;4960958;28;20033;-85
2022/06/01 04:43:23;;;;;;;26.52;15.75;;;;;;;;;;4963648;28;20242;-84
2022/06/01 04:45:53;;;;;;;28.13;14.93;;;;;;;;;;4954498;28;20406;-85
2022/06/01 04:48:19;;;;;;;27.40;15.63;;;;;;;;;;4965171;28;20031;-84
2022/06/01 04:50:45;;;;;;;21.42;14.68;;;;;;;;;;4959743;28;20054;-85
2022/06/01 04:53:12;;;;;;;22.35;14.25;;;;;;;;;;4962171;28;20477;-85
2022/06/01 04:55:38;;;;;;;21.05;13.32;;;;;;;;;;4960698;28;20104;-85
2022/06/01 04:58:04;;;;;;;26.85;14.65;;;;;;;;;;4964127;28;20089;-85
2022/06/01 05:00:31;;;;;;;26.10;14.82;;;;;;;;;;4960822;28;20033;-85
2022/06/01 05:02:57;;;;;;;23.30;14.43;;;;;;;;;;4958045;28;20516;-85
2022/06/01 05:05:23;;;;;;;20.55;13.20;;;;;;;;;;4952489;28;20410;-85
2022/06/01 05:07:49;;;;;;;25.23;14.98;;;;;;;;;;4958607;28;20019;-85
2022/06/01 05:10:15;;;;;;;26.45;15.10;;;;;;;;;;4966186;28;20023;-85
2022/06/01 05:12:41;;;;;;;24.80;15.88;;;;;;;;;;4963021;28;20026;-85
2022/06/01 05:15:07;;;;;;;25.95;14.38;;;;;;;;;;4974747;28;20410;-84
2022/06/01 05:17:33;;;;;;;26.55;15.52;;;;;;;;;;4958002;28;20053;-84
2022/06/01 05:19:59;;;;;;;27.58;15.57;;;;;;;;;;4955866;28;20027;-85
2022/06/01 05:22:26;;;;;;;24.15;15.30;;;;;;;;;;4960688;28;20093;-85
2022/06/01 05:24:52;;;;;;;26.05;14.80;;;;;;;;;;4956693;28;20045;-84
2022/06/01 05:27:18;;;;;;;25.10;15.48;;;;;;;;;;4962543;28;20030;-86
2022/06/01 05:29:44;;;;;;;26.10;15.75;;;;;;;;;;4959815;28;20470;-85
2022/06/01 05:32:13;;;;;;;26.10;17.17;;;;;;;;;;4961406;28;20030;-84
2022/06/01 05:34:39;;;;;;;28.92;16.30;;;;;;;;;;4960831;28;20699;-85
2022/06/01 05:37:05;;;;;;;27.13;16.73;;;;;;;;;;4961678;28;20066;-85
2022/06/01 05:39:31;;;;;;;30.10;16.85;;;;;;;;;;4965097;28;20030;-84
2022/06/01 05:41:57;;;;;;;26.08;16.67;;;;;;;;;;4958708;28;20026;-85
2022/06/01 05:44:23;;;;;;;34.85;16.17;;;;;;;;;;4963388;28;20030;-84
2022/06/01 05:46:54;;;;;;;27.75;17.65;;;;;;;;;;4958117;28;20034;-85
2022/06/01 05:49:20;;;;;;;37.80;17.45;;;;;;;;;;4968685;28;20018;-85
2022/06/01 05:51:46;;;;;;;24.83;15.07;;;;;;;;;;4961154;28;20030;-85
2022/06/01 05:54:12;;;;;;;24.00;14.27;;;;;;;;;;4967124;28;20288;-85
2022/06/01 05:56:38;;;;;;;24.30;15.27;;;;;;;;;;4959261;28;20050;-85
2022/06/01 05:59:04;;;;;;;26.58;15.73;;;;;;;;;;4965279;28;20684;-84
2022/06/01 06:01:31;;;;;;;26.38;14.60;;;;;;;;;;4960229;28;20160;-85
2022/06/01 06:03:57;;;;;;;22.80;15.40;;;;;;;;;;4967171;28;20030;-85
2022/06/01 06:06:23;;;;;;;25.48;16.20;;;;;;;;;;4976550;28;20064;-84
2022/06/01 06:08:49;;;;;;;21.52;14.30;;;;;;;;;;4965389;28;20037;-85
2022/06/01 06:11:16;;;;;;;23.25;14.98;;;;;;;;;;4962724;28;20078;-85
2022/06/01 06:13:42;;;;;;;24.48;14.70;;;;;;;;;;4965557;28;20113;-84
2022/06/01 06:16:09;;;;;;;24.52;13.73;;;;;;;;;;4973537;28;20034;-84
2022/06/01 06:18:35;;;;;;;22.38;13.40;;;;;;;;;;4958128;28;20062;-85
2022/06/01 06:21:01;;;;;;;22.45;12.95;;;;;;;;;;4960347;28;20651;-85
2022/06/01 06:23:27;;;;;;;22.58;12.48;;;;;;;;;;4960959;28;20482;-85
2022/06/01 06:26:01;;;;;;;27.85;12.63;;;;;;;;;;4962607;28;20383;-86
2022/06/01 06:28:28;;;;;;;18.92;11.48;;;;;;;;;;4984483;28;20026;-85
2022/06/01 06:30:54;;;;;;;20.90;12.43;;;;;;;;;;4962754;28;20022;-85
2022/06/01 06:33:20;;;;;;;18.50;12.30;;;;;;;;;;4962445;28;20041;-85
2022/06/01 06:35:47;;;;;;;18.98;12.52;;;;;;;;;;4963792;28;20089;-85
2022/06/01 06:38:13;;;;;;;22.70;11.75;;;;;;;;;;4966775;28;20076;-85
2022/06/01 06:40:39;;;;;;;18.55;13.10;;;;;;;;;;4958967;28;20054;-85
2022/06/01 06:43:05;;;;;;;19.52;11.95;;;;;;;;;;4955942;28;22933;-84
2022/06/01 06:45:31;;;;;;;20.45;12.18;;;;;;;;;;4959413;28;20438;-84
2022/06/01 06:47:57;;;;;;;20.60;11.95;;;;;;;;;;4961358;28;20105;-84
2022/06/01 06:50:24;;;;;;;18.13;12.15;;;;;;;;;;4961865;28;20062;-84
2022/06/01 06:52:50;;;;;;;16.20;10.70;;;;;;;;;;4962264;28;20037;-85
2022/06/01 06:55:16;;;;;;;16.83;7.00;;;;;;;;;;4978972;28;20052;-85
2022/06/01 06:57:43;;;;;;;11.50;4.72;;;;;;;;;;4963348;28;20105;-86
2022/06/01 07:00:13;;;;;;;20.90;5.72;;;;;;;;;;4958954;28;20101;-84
2022/06/01 07:02:39;;;;;;;16.10;4.75;;;;;;;;;;4957821;28;20049;-81
2022/06/01 07:05:05;;;;;;;13.55;6.07;;;;;;;;;;4977322;28;20494;-81
2022/06/01 07:07:32;;;;;;;18.20;5.65;;;;;;;;;;4961905;28;20346;-81
2022/06/01 07:09:58;;;;;;;14.65;6.65;;;;;;;;;;4951240;28;20320;-81
2022/06/01 07:12:24;;;;;;;13.60;7.22;;;;;;;;;;4965859;28;20037;-82
2022/06/01 07:14:50;;;;;;;14.50;7.45;;;;;;;;;;4961810;28;20026;-80
2022/06/01 07:17:16;;;;;;;12.70;7.25;;;;;;;;;;4963728;28;20499;-80
2022/06/01 07:19:42;;;;;;;15.57;8.40;;;;;;;;;;4967954;28;20110;-80
2022/06/01 07:22:08;;;;;;;16.90;7.90;;;;;;;;;;4960187;28;20905;-80
2022/06/01 07:24:34;;;;;;;18.63;10.02;;;;;;;;;;4980667;28;20506;-80
2022/06/01 07:27:00;;;;;;;18.42;9.93;;;;;;;;;;4974209;28;20033;-81
2022/06/01 07:29:26;;;;;;;17.10;9.48;;;;;;;;;;4966142;28;21434;-81
2022/06/01 07:31:52;;;;;;;20.00;10.50;;;;;;;;;;4957297;28;20724;-80
2022/06/01 07:34:18;;;;;;;13.93;9.77;;;;;;;;;;4961679;28;20554;-80
2022/06/01 07:36:45;;;;;;;17.52;10.30;;;;;;;;;;4958645;28;20182;-80
2022/06/01 07:44:42;;;;;;;21.35;11.93;;;;;;;;;;4982568;28;21141;-80
2022/06/01 07:47:09;;;;;;;22.50;10.52;;;;;;;;;;4960843;28;20490;-81
2022/06/01 07:49:36;;;;;;;15.68;9.88;;;;;;;;;;4981418;28;20041;-80
2022/06/01 07:52:02;;;;;;;15.20;9.90;;;;;;;;;;4966739;28;20058;-82
2022/06/01 07:54:29;;;;;;;18.17;10.00;;;;;;;;;;4965605;28;20042;-81
2022/06/01 07:56:55;;;;;;;15.85;10.48;;;;;;;;;;4973360;28;20085;-81
2022/06/01 07:59:21;;;;;;;15.80;9.80;;;;;;;;;;4967365;28;20104;-81
2022/06/01 08:01:47;;;;;;;20.58;10.45;;;;;;;;;;4959242;28;20477;-80
2022/06/01 08:04:14;;;;;;;19.60;10.95;;;;;;;;;;4964343;28;23065;-80
2022/06/01 08:06:40;;;;;;;14.80;10.00;;;;;;;;;;4966013;28;20023;-84
2022/06/01 08:09:07;;;;;;;13.95;9.05;;;;;;;;;;4984031;28;20520;-85
2022/06/01 08:14:18;;;;;;;19.45;9.77;;;;;;;;;;4978736;28;20517;-85
2022/06/01 08:16:47;;;;;;;15.23;9.25;;;;;;;;;;4968182;28;20041;-85
2022/06/01 08:19:16;;;;;;;11.43;8.68;;;;;;;;;;4968368;28;20065;-84
2022/06/01 08:21:42;;;;;;;15.52;8.60;;;;;;;;;;4964582;28;20046;-86
2022/06/01 08:24:08;;;;;;;12.48;9.07;;;;;;;;;;4966893;28;20037;-86
2022/06/01 08:26:35;;;;;;;18.45;8.98;;;;;;;;;;4971336;28;20034;-85
2022/06/01 08:29:02;;;;;;;11.50;8.88;;;;;;;;;;4965881;28;20513;-87
2022/06/01 08:31:29;;;;;;;11.18;8.13;;;;;;;;;;4984373;28;20349;-85
2022/06/01 08:33:56;;;;;;;25.83;8.52;;;;;;;;;;4980466;28;20367;-86
2022/06/01 08:36:22;;;;;;;13.88;8.45;;;;;;;;;;4979989;28;20062;-86
2022/06/01 08:38:48;;;;;;;13.13;9.18;;;;;;;;;;4969049;28;20046;-87
2022/06/01 08:41:15;;;;;;;9.15;7.22;;;;;;;;;;4970122;28;20120;-88
2022/06/01 08:43:46;;;;;;;11.60;7.40;;;;;;;;;;4961438;28;20026;-86
2022/06/01 08:46:13;;;;;;;11.45;7.45;;;;;;;;;;4964892;28;20047;-86
2022/06/01 08:48:47;;;;;;;8.88;6.53;;;;;;;;;;4968780;28;20034;-87
2022/06/01 08:51:14;;;;;;;7.95;6.85;;;;;;;;;;4975772;28;20035;-86
2022/06/01 08:53:40;;;;;;;8.00;6.55;;;;;;;;;;4969160;28;20034;-87
2022/06/01 08:56:15;;;;;;;8.00;6.18;;;;;;;;;;4969938;28;20747;-88
2022/06/01 08:58:56;;;;;;;8.32;5.93;;;;;;;;;;4964870;28;20049;-88
2022/06/01 09:01:41;;;;;;;7.45;6.05;;;;;;;;;;4975559;28;20545;-87
2022/06/01 09:04:26;;;;;;;8.80;5.10;;;;;;;;;;4964517;28;20042;-88
2022/06/01 09:07:02;;;;;;;8.85;5.82;;;;;;;;;;4964043;28;20034;-88
2022/06/01 09:09:45;;;;;;;7.85;5.57;;;;;;;;;;4973540;28;20035;-88
2022/06/01 09:12:11;;;;;;;7.32;5.65;;;;;;;;;;4970303;28;20095;-88
2022/06/01 09:14:39;;;;;;;6.22;4.97;;;;;;;;;;4962956;28;20018;-89
2022/06/01 09:17:05;;;;;;;8.30;6.10;;;;;;;;;;4981307;28;20037;-88
2022/06/01 09:25:03;;;;;;;8.95;5.53;;;;;;;;;;4980592;28;20421;-88
2022/06/01 09:27:34;;;;;;;6.85;4.88;;;;;;;;;;4968964;28;20018;-88
2022/06/01 09:30:10;;;;;;;7.65;4.88;;;;;;;;;;4976811;28;20458;-86
2022/06/01 09:32:41;;;;;;;6.90;4.85;;;;;;;;;;4967092;28;20437;-86
2022/06/01 09:35:09;;;;;;;6.88;4.65;;;;;;;;;;4964768;28;20070;-86
2022/06/01 09:37:43;;;;;;;5.28;3.95;;;;;;;;;;4961647;28;20461;-88
2022/06/01 09:40:23;;;;;;;5.00;3.83;;;;;;;;;;4974295;28;20053;-89
2022/06/01 09:42:54;;;;;;;4.75;3.80;;;;;;;;;;4966681;28;20446;-88
2022/06/01 09:45:27;;;;;;;4.65;3.20;;;;;;;;;;4976029;28;20132;-87
2022/06/01 09:47:55;;;;;;;4.45;4.03;;;;;;;;;;4971790;28;20027;-88
2022/06/01 09:50:29;;;;;;;4.13;3.42;;;;;;;;;;4978583;28;20066;-88
2022/06/01 09:52:58;;;;;;;5.30;3.55;;;;;;;;;;4966430;28;20390;-88
2022/06/01 09:55:25;;;;;;;5.80;3.50;;;;;;;;;;4977987;28;20034;-88
2022/06/01 09:58:06;;;;;;;5.72;3.65;;;;;;;;;;4961481;28;20033;-88
2022/06/01 10:06:18;;;;;;;4.15;3.28;;;;;;;;;;4980103;28;20045;-88
2022/06/01 10:08:55;;;;;;;3.58;3.13;;;;;;;;;;4990497;28;20034;-87
2022/06/01 10:11:36;;;;;;;3.40;3.10;;;;;;;;;;4962507;28;20366;-88
2022/06/01 10:14:08;;;;;;;4.03;2.92;;;;;;;;;;4978950;28;20046;-88
2022/06/01 10:16:40;;;;;;;3.13;2.38;;;;;;;;;;4963477;28;20080;-88
2022/06/01 10:19:10;;;;;;;4.22;3.45;;;;;;;;;;4978904;28;20042;-88
2022/06/01 10:21:45;;;;;;;4.10;3.20;;;;;;;;;;4964620;28;20085;-88
2022/06/01 10:24:14;;;;;;;3.00;2.25;;;;;;;;;;4978457;28;20053;-88
2022/06/01 10:26:44;;;;;;;4.75;2.20;;;;;;;;;;4960091;28;20467;-88
2022/06/01 10:29:13;;;;;;;1.83;1.40;;;;;;;;;;4975277;28;20034;-88
2022/06/01 10:31:54;;;;;;;2.53;1.52;;;;;;;;;;4974017;28;20031;-88
2022/06/01 10:34:39;;;;;;;2.22;1.90;;;;;;;;;;4961661;28;20369;-88
2022/06/01 10:37:08;;;;;;;2.20;1.98;;;;;;;;;;4978360;28;20126;-88
2022/06/01 10:39:53;;;;;;;2.33;1.73;;;;;;;;;;4965466;28;20061;-89
2022/06/01 10:43:16;;;;;;;3.03;1.95;;;;;;;;;;4968004;28;20135;-88
2022/06/01 10:45:17;;;;;;;4.25;1.88;;;;;;;;;;4985619;28;20054;-89
2022/06/01 10:47:54;;;;;;;1.70;1.58;;;;;;;;;;4989817;28;20023;-88
2022/06/01 10:50:21;;;;;;;2.00;1.63;;;;;;;;;;4968193;28;20031;-89
2022/06/01 10:52:50;;;;;;;2.17;1.90;;;;;;;;;;4974425;28;20030;-89
2022/06/01 10:55:21;;;;;;;1.95;1.77;;;;;;;;;;4973500;28;20121;-89
2022/06/01 10:57:48;;;;;;;2.15;1.77;;;;;;;;;;4970718;28;20097;-88
2022/06/01 11:00:17;;;;;;;1.85;1.48;;;;;;;;;;4967355;28;20034;-87
2022/06/01 11:03:09;;;;;;;1.45;1.35;;;;;;;;;;4974037;28;20046;-88
2022/06/01 11:05:47;;;;;;;1.88;1.77;;;;;;;;;;4944532;28;20050;-88
2022/06/01 11:08:26;;;;;;;2.20;1.67;;;;;;;;;;4968773;28;20388;-89
2022/06/01 11:11:11;;;;;;;1.15;1.10;;;;;;;;;;4971512;28;20034;-89
2022/06/01 11:13:57;;;;;;;4.38;1.85;;;;;;;;;;4981413;28;20055;-87
2022/06/01 11:16:32;;;;;;;2.90;1.98;;;;;;;;;;4985929;28;20038;-89
2022/06/01 11:19:04;;;;;;;6.03;1.83;;;;;;;;;;4983947;28;20061;-87
2022/06/01 11:21:40;;;;;;;3.25;1.67;;;;;;;;;;4972771;28;20033;-89
2022/06/01 11:24:06;;;;;;;;;;;;;;;;;;4968783;28;20042;-88
2022/06/01 11:26:55;;;;;;;3.33;1.80;;;;;;;;;;4968459;28;19914;-88
2022/06/01 11:29:24;;;;;;;3.70;2.38;;;;;;;;;;4951757;28;20035;-88
2022/06/01 11:31:59;;;;;;;3.05;2.70;;;;;;;;;;4978858;28;20512;-88
2022/06/01 11:34:45;;;;;;;4.18;2.20;;;;;;;;;;4968444;28;20049;-89
2022/06/01 11:37:19;;;;;;;3.38;2.40;;;;;;;;;;4983036;28;20077;-89
2022/06/01 11:39:54;;;;;;;4.53;2.03;;;;;;;;;;4962371;28;20120;-89
2022/06/01 11:42:30;;;;;;;3.38;1.88;;;;;;;;;;4974012;28;20034;-88
2022/06/01 11:45:01;;;;;;;2.13;1.85;;;;;;;;;;4960285;28;20038;-88
2022/06/01 11:47:33;;;;;;;3.85;1.63;;;;;;;;;;4965947;28;20058;-89
2022/06/01 11:50:11;;;;;;;1.95;1.35;;;;;;;;;;4968562;28;20075;-88
2022/06/01 11:52:52;;;;;;;3.25;1.60;;;;;;;;;;4965413;28;20030;-88
2022/06/01 11:55:31;;;;;;;3.05;1.77;;;;;;;;;;4981725;28;20084;-89
2022/06/01 11:58:23;;;;;;;2.53;1.60;;;;;;;;;;4968244;28;20085;-89
2022/06/01 12:00:57;;;;;;;1.92;1.38;;;;;;;;;;4973741;28;20038;-89
2022/06/01 12:03:26;;;;;;;6.70;1.60;;;;;;;;;;4979309;28;20035;-89
2022/06/01 12:06:00;;;;;;;2.85;1.83;;;;;;;;;;4965498;28;20127;-87
2022/06/01 12:08:36;;;;;;;1.98;1.70;;;;;;;;;;4967836;28;20358;-89
2022/06/01 12:11:04;;;;;;;1.58;1.40;;;;;;;;;;4963788;28;20150;-90
2022/06/01 12:13:31;;;;;;;4.13;1.52;;;;;;;;;;4965059;28;20567;-89
2022/06/01 12:16:07;;;;;;;2.35;1.52;;;;;;;;;;4978523;28;20034;-88
2022/06/01 12:18:33;;;;;;;1.80;1.55;;;;;;;;;;4967004;28;20486;-88
2022/06/01 12:21:18;;;;;;;1.58;1.40;;;;;;;;;;4961533;28;20042;-89
2022/06/01 12:30:00;;;;;;;4.65;1.98;;;;;;;;;;4979121;28;20052;-88
2022/06/01 12:32:27;;;;;;;3.33;1.85;;;;;;;;;;4964026;28;20116;-90
2022/06/01 12:34:58;;;;;;;2.35;2.10;;;;;;;;;;4980296;28;20066;-90
2022/06/01 12:37:30;;;;;;;1.60;1.50;;;;;;;;;;4983750;28;20026;-89
2022/06/01 12:39:58;;;;;;;2.50;1.58;;;;;;;;;;4964810;28;20684;-88
2022/06/01 12:42:30;;;;;;;1.90;1.75;;;;;;;;;;4967716;28;20125;-88
2022/06/01 12:44:57;;;;;;;1.92;1.73;;;;;;;;;;4978827;28;20030;-88
2022/06/01 12:47:37;;;;;;;2.10;1.88;;;;;;;;;;4968043;28;20034;-89
2022/06/01 12:50:12;;;;;;;2.15;1.90;;;;;;;;;;4961284;28;20064;-89
2022/06/01 12:52:38;;;;;;;3.28;2.03;;;;;;;;;;4967915;28;20074;-89
2022/06/01 12:55:07;;;;;;;3.13;2.20;;;;;;;;;;4978656;28;20030;-89
2022/06/01 12:57:33;;;;;;;3.67;2.10;;;;;;;;;;4979162;28;20395;-89
2022/06/01 13:00:01;;;;;;;2.20;1.80;;;;;;;;;;4960837;28;20132;-88
2022/06/01 13:02:28;;;;;;;2.10;1.70;;;;;;;;;;4983111;28;20327;-88
2022/06/01 13:04:55;;;;;;;3.40;2.28;;;;;;;;;;4964462;28;20109;-89
2022/06/01 13:07:23;;;;;;;3.95;2.60;;;;;;;;;;4964232;28;20501;-88
2022/06/01 13:09:57;;;;;;;3.47;2.72;;;;;;;;;;4963899;28;21375;-89
2022/06/01 13:12:28;;;;;;;4.75;3.08;;;;;;;;;;4963187;28;20030;-90
2022/06/01 13:14:54;;;;;;;5.50;2.70;;;;;;;;;;4977484;28;20031;-87
2022/06/01 13:17:20;;;;;;;3.85;2.65;;;;;;;;;;4972524;28;20072;-90
2022/06/01 13:19:59;;;;;;;2.97;2.03;;;;;;;;;;4967716;28;20029;-89
2022/06/01 13:22:29;;;;;;;5.95;1.92;;;;;;;;;;4978488;28;20066;-89
2022/06/01 13:24:57;;;;;;;2.42;2.03;;;;;;;;;;4967891;28;20181;-88
2022/06/01 13:27:23;;;;;;;5.25;2.33;;;;;;;;;;4979698;28;20045;-88
2022/06/01 13:29:52;;;;;;;3.33;2.38;;;;;;;;;;4968562;28;20037;-90
2022/06/01 13:32:20;;;;;;;3.40;2.30;;;;;;;;;;4966843;28;20419;-90
2022/06/01 13:34:48;;;;;;;3.90;2.00;;;;;;;;;;4979767;28;20094;-89
2022/06/01 13:37:19;;;;;;;3.38;2.35;;;;;;;;;;4959409;28;20064;-90
2022/06/01 13:39:56;;;;;;;4.40;1.98;;;;;;;;;;4967816;28;20046;-96
2022/06/01 13:42:23;;;;;;;5.82;2.45;;;;;;;;;;4966425;28;20057;-93
2022/06/01 13:44:49;;;;;;;6.43;2.47;;;;;;;;;;4982053;28;20034;-90
2022/06/01 13:47:23;;;;;;;4.68;2.45;;;;;;;;;;4976761;28;20057;-92
2022/06/01 13:49:50;;;;;;;3.80;2.40;;;;;;;;;;4969397;28;20307;-91
2022/06/01 13:52:16;;;;;;;3.85;2.70;;;;;;;;;;4964371;28;20046;-92
2022/06/01 13:54:47;;;;;;;4.03;2.60;;;;;;;;;;4967892;28;20043;-91
2022/06/01 13:57:16;;;;;;;2.38;2.17;;;;;;;;;;4982763;28;20038;-92
2022/06/01 13:59:53;;;;;;;4.65;2.50;;;;;;;;;;4960487;28;20220;-89
2022/06/01 14:02:29;;;;;;;3.33;2.03;;;;;;;;;;4982217;28;20042;-92
2022/06/01 14:05:16;;;;;;;3.30;2.17;;;;;;;;;;4967988;28;20154;-92
2022/06/01 14:07:49;;;;;;;4.25;1.98;;;;;;;;;;4967577;28;20092;-92
2022/06/01 14:10:16;;;;;;;2.22;1.85;;;;;;;;;;4964311;28;20137;-92
2022/06/01 14:12:44;;;;;;;2.92;1.90;;;;;;;;;;4967084;28;20081;-92
2022/06/01 14:15:12;;;;;;;3.28;2.00;;;;;;;;;;4974677;28;20034;-92
2022/06/01 14:17:41;;;;;;;3.25;2.22;;;;;;;;;;4969915;28;20050;-92
2022/06/01 14:20:07;;;;;;;2.38;2.17;;;;;;;;;;4969189;28;20042;-93
2022/06/01 14:22:33;;;;;;;3.92;1.80;;;;;;;;;;4966547;28;20042;-93
2022/06/01 14:30:35;;;;;;;1.27;1.17;;;;;;;;;;4979915;28;20058;-91
2022/06/01 14:33:01;;;;;;;2.10;1.35;;;;;;;;;;4979509;28;20038;-93
2022/06/01 14:35:31;;;;;;;2.83;1.45;;;;;;;;;;4964104;28;20043;-93
2022/06/01 14:37:57;;;;;;;1.35;1.13;;;;;;;;;;4965971;28;20061;-91
2022/06/01 14:40:23;;;;;;;0.98;0.90;;;;;;;;;;4968416;28;20034;-90
2022/06/01 14:42:49;;;;;;;1.33;1.20;;;;;;;;;;4966743;28;20576;-93
2022/06/01 14:45:15;;;;;;;1.40;1.02;;;;;;;;;;4964496;28;20387;-93
2022/06/01 14:47:41;;;;;;;0.80;0.80;;;;;;;;;;4964180;28;20042;-93
2022/06/01 14:50:07;;;;;;;0.63;0.60;;;;;;;;;;4967026;28;20548;-92
2022/06/01 14:52:33;;;;;;;1.33;1.15;;;;;;;;;;4966804;28;20023;-94
2022/06/01 14:55:01;;;;;;;1.40;0.60;;;;;;;;;;4962521;28;20047;-94
2022/06/01 14:57:27;;;;;;;1.33;1.00;;;;;;;;;;4969558;28;20038;-93
2022/06/01 14:59:53;;;;;;;1.80;1.00;;;;;;;;;;4969612;28;20089;-93
2022/06/01 15:02:20;;;;;;;7.07;0.80;;;;;;;;;;4972461;28;20090;-92
2022/06/01 15:04:48;;;;;;;1.58;1.00;;;;;;;;;;4957109;28;21623;-91
2022/06/01 15:07:14;;;;;;;1.30;0.90;;;;;;;;;;4968840;28;20917;-94
2022/06/01 15:09:40;;;;;;;1.95;0.70;;;;;;;;;;4966592;28;20088;-93
2022/06/01 15:12:10;;;;;;;1.20;1.10;;;;;;;;;;4961033;28;20038;-93
2022/06/01 15:14:37;;;;;;;0.88;0.85;;;;;;;;;;4962467;28;20387;-93
2022/06/01 15:17:07;;;;;;;0.95;0.90;;;;;;;;;;4965801;28;20061;-93
2022/06/01 15:19:36;;;;;;;1.80;1.10;;;;;;;;;;4965421;28;20030;-93
2022/06/01 15:22:03;;;;;;;4.00;1.00;;;;;;;;;;4966663;28;20486;-92